createdAt,value
2022-10-05T00:04:45.894Z,7.15
2022-10-05T00:10:24.058Z,7.16
2022-10-05T00:15:47.846Z,7.18
2022-10-05T00:21:11.700Z,7.18
2022-10-05T00:26:46.475Z,7.27
2022-10-05T00:32:09.276Z,7.26
2022-10-05T00:37:32.760Z,7.20
2022-10-05T00:43:12.480Z,7.19
2022-10-05T00:48:42.215Z,7.14
2022-10-05T00:54:41.310Z,7.20
2022-10-05T01:00:16.827Z,7.15
2022-10-05T01:06:09.559Z,7.21
2022-10-05T01:11:50.459Z,7.24
2022-10-05T01:17:40.395Z,7.36
2022-10-05T01:23:25.273Z,7.26
2022-10-05T01:28:57.391Z,7.21
2022-10-05T01:34:27.557Z,7.22
2022-10-05T01:40:01.810Z,7.20
2022-10-05T01:45:37.910Z,7.17
2022-10-05T01:51:30.642Z,7.25
2022-10-05T01:57:15.773Z,7.27
2022-10-05T02:02:51.713Z,7.27
2022-10-05T02:08:21.659Z,7.28
2022-10-05T02:13:54.533Z,7.34
2022-10-05T02:19:39.917Z,7.34
2022-10-05T02:25:09.671Z,7.40
2022-10-05T02:30:26.639Z,7.32
2022-10-05T02:35:49.599Z,7.32
2022-10-05T02:41:16.628Z,7.27
2022-10-05T02:47:01.390Z,7.28
2022-10-05T02:52:40.539Z,7.37
2022-10-05T02:58:19.760Z,7.28
2022-10-05T03:03:51.937Z,7.27
2022-10-05T03:09:17.277Z,7.24
2022-10-05T03:14:56.692Z,7.31
2022-10-05T03:20:29.652Z,7.27
2022-10-05T03:26:18.474Z,7.34
2022-10-05T03:32:12.835Z,7.21
2022-10-05T03:37:58.234Z,7.15
2022-10-05T03:43:46.485Z,7.17
2022-10-05T03:49:51.355Z,7.21
2022-10-05T03:55:34.859Z,7.11
2022-10-05T04:01:00.829Z,7.20
2022-10-05T04:06:41.702Z,7.06
2022-10-05T04:12:38.862Z,7.02
2022-10-05T04:18:09.086Z,7.03
2022-10-05T04:23:59.245Z,6.98
2022-10-05T04:29:41.013Z,6.98
2022-10-05T04:35:44.090Z,6.94
2022-10-05T04:41:28.151Z,6.88
2022-10-05T04:47:20.416Z,6.87
2022-10-05T04:53:03.798Z,6.91
2022-10-05T04:59:01.582Z,6.90
2022-10-05T05:05:02.508Z,6.89
2022-10-05T05:10:40.035Z,6.90
2022-10-05T05:16:38.421Z,7.10
2022-10-05T05:22:19.812Z,7.30
2022-10-05T05:28:08.583Z,7.32
2022-10-05T05:33:44.757Z,7.13
2022-10-05T05:39:29.747Z,7.34
2022-10-05T05:45:04.580Z,7.44
2022-10-05T05:51:08.418Z,7.46
2022-10-05T05:56:35.421Z,7.73
2022-10-05T06:02:04.035Z,8.11
2022-10-05T06:07:31.265Z,8.52
2022-10-05T06:13:08.811Z,8.93
2022-10-05T06:18:34.527Z,9.06
2022-10-05T06:24:23.260Z,9.33
2022-10-05T06:30:05.313Z,9.53
2022-10-05T06:36:05.598Z,9.79
2022-10-05T06:41:47.058Z,9.93
2022-10-05T06:47:38.471Z,10.04
2022-10-05T06:53:35.915Z,10.20
2022-10-05T06:59:15.200Z,10.45
2022-10-05T07:04:54.136Z,10.62
2022-10-05T07:10:38.853Z,10.75
2022-10-05T07:16:42.906Z,11.00
2022-10-05T07:22:26.603Z,10.97
2022-10-05T07:27:57.200Z,11.04
2022-10-05T07:34:07.160Z,11.13
2022-10-05T07:40:00.584Z,11.28
2022-10-05T07:45:47.137Z,11.36
2022-10-05T07:51:29.132Z,11.50
2022-10-05T07:57:02.218Z,11.57
2022-10-05T08:02:34.898Z,11.79
2022-10-05T08:08:00.763Z,11.86
2022-10-05T08:13:48.675Z,12.13
2022-10-05T08:19:21.681Z,12.06
2022-10-05T08:25:11.466Z,12.09
2022-10-05T08:30:36.211Z,12.21
2022-10-05T08:36:15.010Z,12.41
2022-10-05T08:41:57.481Z,12.42
2022-10-05T08:47:28.393Z,12.67
2022-10-05T08:53:17.460Z,12.85
2022-10-05T08:59:22.491Z,12.93
2022-10-05T09:05:32.162Z,12.85
2022-10-05T09:11:11.085Z,12.88
2022-10-05T09:16:47.329Z,12.93
2022-10-05T09:22:17.850Z,12.92
2022-10-05T09:27:44.099Z,12.97
2022-10-05T09:33:49.749Z,13.07
2022-10-05T09:39:35.256Z,13.22
2022-10-05T09:45:40.159Z,13.30
2022-10-05T09:51:13.538Z,13.37
2022-10-05T09:57:27.950Z,13.79
2022-10-05T10:03:24.763Z,13.64
2022-10-05T10:09:11.345Z,13.79
2022-10-05T10:15:02.805Z,14.21
2022-10-05T10:21:04.378Z,14.48
2022-10-05T10:27:13.503Z,14.60
2022-10-05T10:32:49.967Z,14.66
2022-10-05T10:38:35.676Z,14.65
2022-10-05T10:44:37.590Z,14.64
2022-10-05T10:50:24.320Z,14.71
2022-10-05T10:56:26.986Z,14.96
2022-10-05T11:02:30.121Z,15.08
2022-10-05T11:08:05.921Z,14.99
2022-10-05T11:13:55.940Z,15.05
2022-10-05T11:19:59.602Z,15.13
2022-10-05T11:25:48.821Z,15.31
2022-10-05T11:31:31.682Z,15.39
2022-10-05T11:37:10.957Z,15.50
2022-10-05T11:43:09.890Z,15.59
2022-10-05T11:49:00.892Z,15.88
2022-10-05T11:55:10.837Z,15.94
2022-10-05T12:00:40.863Z,15.89
2022-10-05T12:06:27.937Z,15.78
2022-10-05T12:12:03.879Z,15.73
2022-10-05T12:17:48.739Z,15.70
2022-10-05T12:23:44.602Z,15.72
2022-10-05T12:29:15.508Z,15.76
2022-10-05T12:34:49.043Z,15.67
2022-10-05T12:40:21.509Z,15.70
2022-10-05T12:46:12.382Z,15.73
2022-10-05T12:52:06.980Z,15.77
2022-10-05T12:57:43.758Z,15.74
2022-10-05T13:03:10.978Z,15.76
2022-10-05T13:09:03.511Z,15.87
2022-10-05T13:14:59.042Z,15.82
2022-10-05T13:20:38.123Z,15.84
2022-10-05T13:26:05.648Z,15.87
2022-10-05T13:31:42.035Z,15.82
2022-10-05T13:37:39.753Z,15.82
2022-10-05T13:43:21.898Z,15.80
2022-10-05T13:49:06.576Z,15.83
2022-10-05T13:54:48.710Z,15.85
2022-10-05T14:00:30.028Z,15.87
2022-10-05T14:05:57.976Z,15.89
2022-10-05T14:11:40.334Z,15.90
2022-10-05T14:17:10.550Z,15.92
2022-10-05T14:22:47.846Z,15.96
2022-10-05T14:28:43.014Z,15.95
2022-10-05T14:34:06.988Z,15.93
2022-10-05T14:39:35.725Z,15.90
2022-10-05T14:45:09.316Z,15.94
2022-10-05T14:50:40.073Z,15.94
2022-10-05T14:56:25.157Z,15.92
2022-10-05T15:02:00.639Z,15.91
2022-10-05T15:07:30.246Z,15.88
2022-10-05T15:12:55.638Z,15.85
2022-10-05T15:18:35.207Z,15.81
2022-10-05T15:24:10.699Z,15.74
2022-10-05T15:29:56.930Z,15.64
2022-10-05T15:36:08.505Z,15.54
2022-10-05T15:41:40.136Z,15.48
2022-10-05T15:47:02.374Z,15.54
2022-10-05T15:52:59.666Z,15.78
2022-10-05T15:58:39.061Z,15.63
2022-10-05T16:04:26.810Z,15.35
2022-10-05T16:09:57.249Z,15.14
2022-10-05T16:15:33.784Z,14.97
2022-10-05T16:21:19.530Z,14.79
2022-10-05T16:27:05.859Z,14.69
2022-10-05T16:32:39.245Z,14.55
2022-10-05T16:38:39.074Z,14.42
2022-10-05T16:44:12.534Z,14.19
2022-10-05T16:49:54.320Z,13.84
2022-10-05T16:55:21.388Z,13.31
2022-10-05T17:00:53.852Z,12.71
2022-10-05T17:06:37.324Z,12.20
2022-10-05T17:12:33.013Z,11.88
2022-10-05T17:18:32.832Z,11.71
2022-10-05T17:24:49.726Z,11.38
2022-10-05T17:30:36.542Z,11.25
2022-10-05T17:36:18.978Z,11.39
2022-10-05T17:41:44.308Z,11.81
2022-10-05T17:47:17.552Z,11.63
2022-10-05T17:53:02.177Z,11.30
2022-10-05T17:58:55.022Z,11.00
2022-10-05T18:04:38.050Z,10.78
2022-10-05T18:16:03.593Z,10.44
2022-10-05T18:21:38.877Z,10.21
2022-10-05T18:27:12.114Z,10.08
2022-10-05T18:33:06.130Z,9.96
2022-10-05T18:39:03.139Z,10.01
2022-10-05T18:44:44.941Z,9.85
2022-10-05T18:50:38.698Z,9.75
2022-10-05T18:56:39.148Z,9.70
2022-10-05T19:02:29.373Z,9.63
2022-10-05T19:08:16.007Z,9.55
2022-10-05T19:14:13.147Z,9.52
2022-10-05T19:20:23.981Z,9.44
2022-10-05T19:26:05.490Z,9.32
2022-10-05T19:31:56.513Z,9.15
2022-10-05T19:37:39.063Z,9.24
2022-10-05T19:43:23.851Z,9.32
2022-10-05T19:48:55.578Z,9.24
2022-10-05T19:54:38.809Z,9.21
2022-10-05T20:00:04.942Z,9.09
2022-10-05T20:05:27.750Z,9.08
2022-10-05T20:10:52.070Z,8.96
2022-10-05T20:16:54.995Z,8.96
2022-10-05T20:22:42.853Z,8.99
2022-10-05T20:28:17.112Z,9.05
2022-10-05T20:33:41.466Z,8.91
2022-10-05T20:39:04.023Z,8.98
2022-10-05T20:44:26.183Z,9.05
2022-10-05T20:49:50.613Z,9.04
2022-10-05T20:55:14.050Z,9.03
2022-10-05T21:00:55.197Z,9.13
2022-10-05T21:11:59.102Z,9.30
2022-10-05T21:17:21.817Z,9.18
2022-10-05T21:22:44.306Z,9.35
2022-10-05T21:28:07.012Z,9.39
2022-10-05T21:33:29.569Z,9.49
2022-10-05T21:38:53.101Z,9.51
2022-10-05T21:44:16.177Z,9.77
2022-10-05T21:49:38.988Z,9.74
2022-10-05T21:55:01.111Z,9.66
2022-10-05T22:00:27.049Z,9.69
2022-10-05T22:05:49.490Z,9.72
2022-10-05T22:11:18.077Z,9.98
2022-10-05T22:16:44.294Z,10.05
2022-10-05T22:22:11.138Z,10.40
2022-10-05T22:27:31.693Z,10.57
2022-10-05T22:32:55.016Z,10.93
2022-10-05T22:38:17.158Z,11.09
2022-10-05T22:43:39.418Z,11.18
2022-10-05T22:49:01.625Z,11.13
2022-10-05T22:54:28.765Z,11.43
2022-10-05T22:59:47.871Z,11.48
2022-10-05T23:05:10.573Z,11.48
2022-10-05T23:10:34.445Z,11.39
2022-10-05T23:15:56.609Z,11.29
2022-10-05T23:21:19.183Z,11.13
2022-10-05T23:26:42.989Z,11.21
2022-10-05T23:32:05.123Z,11.21
2022-10-05T23:37:28.778Z,11.02
2022-10-05T23:42:51.855Z,10.85
2022-10-05T23:48:14.098Z,10.80
2022-10-05T23:53:36.879Z,10.77
2022-10-05T23:58:59.276Z,10.75
